Time;durP1;ratioP1;P1;durP2;ratioP2;P2;SDS_P1;SDS_P2;PMS_P1;PMS_P2;Temp;Humidity;BMP_temperature;BMP_pressure;BME280_temperature;BME280_humidity;BME280_pressure;Samples;Min_cycle;Max_cycle;Signal;HPM_P1;HPM_P2
2021/08/07 03:32:24;;;;;;;4.70;1.93;;;16.00;99.70;;;;;;5050997;28;20205;-66
2021/08/07 03:34:51;;;;;;;3.93;1.90;;;15.80;99.70;;;;;;5051795;28;20198;-65
2021/08/07 03:37:18;;;;;;;5.33;2.00;;;15.70;99.70;;;;;;5051888;28;20483;-64
2021/08/07 03:39:44;;;;;;;2.90;1.93;;;15.70;99.70;;;;;;5053209;28;20455;-64
2021/08/07 03:42:11;;;;;;;3.00;2.10;;;15.60;99.70;;;;;;5052275;28;20471;-64
2021/08/07 03:44:38;;;;;;;4.17;2.03;;;15.60;99.70;;;;;;5052685;28;20455;-64
2021/08/07 03:47:05;;;;;;;3.70;1.70;;;15.60;99.70;;;;;;5051409;28;20428;-64
2021/08/07 03:49:33;;;;;;;3.23;1.93;;;15.60;99.70;;;;;;5051840;28;20451;-66
2021/08/07 03:51:59;;;;;;;3.40;2.20;;;15.60;99.70;;;;;;5052249;28;20512;-65
2021/08/07 03:54:26;;;;;;;3.30;1.63;;;15.60;99.70;;;;;;5052002;28;20450;-64
2021/08/07 03:56:53;;;;;;;2.97;1.83;;;15.60;99.70;;;;;;5052373;28;20479;-65
2021/08/07 03:59:19;;;;;;;5.20;2.20;;;15.60;99.70;;;;;;5052085;28;20448;-65
2021/08/07 04:01:46;;;;;;;3.47;2.20;;;15.60;99.70;;;;;;5051949;28;20478;-64
2021/08/07 04:04:13;;;;;;;2.60;1.80;;;15.50;99.70;;;;;;5052886;28;20454;-64
2021/08/07 04:06:41;;;;;;;2.70;1.83;;;15.50;99.70;;;;;;5053806;28;20440;-65
2021/08/07 04:09:08;;;;;;;2.87;1.97;;;15.50;99.70;;;;;;5052303;28;20455;-64
2021/08/07 04:11:34;;;;;;;3.67;2.10;;;15.50;99.70;;;;;;5056949;28;20475;-64
2021/08/07 04:14:01;;;;;;;3.40;2.00;;;15.50;99.70;;;;;;5056150;28;20443;-64
2021/08/07 04:16:28;;;;;;;3.93;2.10;;;15.50;99.70;;;;;;5057786;28;20451;-65
2021/08/07 04:18:55;;;;;;;4.93;1.83;;;15.50;99.70;;;;;;5056421;28;20452;-64
2021/08/07 04:21:21;;;;;;;3.10;2.20;;;15.60;99.70;;;;;;5057172;28;21017;-64
2021/08/07 04:23:49;;;;;;;4.70;2.37;;;15.70;99.70;;;;;;5057098;28;20454;-66
2021/08/07 04:26:16;;;;;;;2.83;1.80;;;15.70;99.70;;;;;;5055756;28;20955;-65
2021/08/07 04:28:43;;;;;;;4.60;2.70;;;15.70;99.70;;;;;;5055552;28;20977;-64
2021/08/07 04:31:10;;;;;;;2.53;1.50;;;15.70;99.70;;;;;;5056437;28;20535;-64
2021/08/07 04:33:36;;;;;;;3.47;1.93;;;15.70;99.70;;;;;;5056874;28;20505;-65
2021/08/07 04:36:04;;;;;;;4.23;1.90;;;15.80;99.70;;;;;;5055881;28;20448;-64
2021/08/07 04:38:31;;;;;;;4.83;1.97;;;15.80;99.70;;;;;;5056954;28;20851;-64
2021/08/07 04:40:59;;;;;;;2.87;1.80;;;15.80;99.70;;;;;;5056606;28;20470;-65
2021/08/07 04:43:27;;;;;;;3.60;2.00;;;15.90;99.70;;;;;;5057506;28;20792;-64
2021/08/07 04:45:54;;;;;;;4.20;2.10;;;15.90;99.70;;;;;;5056080;28;20457;-65
2021/08/07 04:48:21;;;;;;;2.60;1.50;;;15.90;99.70;;;;;;5056453;28;20440;-65
2021/08/07 04:50:47;;;;;;;2.90;2.00;;;15.90;99.70;;;;;;5056476;28;20460;-64
2021/08/07 04:53:14;;;;;;;3.73;1.77;;;16.00;99.70;;;;;;5056371;28;20477;-64
2021/08/07 04:55:41;;;;;;;2.50;1.70;;;15.90;99.70;;;;;;5056029;28;20459;-65
2021/08/07 04:58:10;;;;;;;2.37;1.63;;;15.90;99.70;;;;;;5056365;28;20479;-64
2021/08/07 05:00:37;;;;;;;4.13;2.30;;;16.00;99.70;;;;;;5056443;28;20482;-65
2021/08/07 05:03:04;;;;;;;3.80;1.97;;;16.10;99.70;;;;;;5055932;28;20440;-64
2021/08/07 05:05:31;;;;;;;3.53;1.90;;;16.10;99.70;;;;;;5057017;28;20453;-63
2021/08/07 05:07:57;;;;;;;2.20;1.60;;;16.10;99.70;;;;;;5056563;28;20436;-64
2021/08/07 05:10:24;;;;;;;2.93;1.93;;;16.10;99.70;;;;;;5056848;28;20447;-64
2021/08/07 05:12:51;;;;;;;3.83;2.50;;;16.20;99.70;;;;;;5056285;28;20497;-63
2021/08/07 05:15:19;;;;;;;4.40;2.07;;;16.20;99.70;;;;;;5055974;28;20447;-65
2021/08/07 05:17:45;;;;;;;3.17;2.07;;;16.20;99.70;;;;;;5056165;28;20994;-64
2021/08/07 05:20:12;;;;;;;3.67;2.00;;;16.30;99.70;;;;;;5055800;28;20931;-64
2021/08/07 05:22:39;;;;;;;2.93;2.03;;;16.30;99.70;;;;;;5054866;28;20845;-64
2021/08/07 05:25:08;;;;;;;3.60;2.17;;;16.30;99.70;;;;;;5056137;28;20470;-65
2021/08/07 05:27:35;;;;;;;4.40;2.17;;;16.30;99.70;;;;;;5056345;28;20966;-64
2021/08/07 05:30:02;;;;;;;3.47;2.00;;;16.40;99.70;;;;;;5056209;28;20447;-64
2021/08/07 05:32:30;;;;;;;4.30;2.10;;;16.30;99.70;;;;;;5055991;28;20529;-65
2021/08/07 05:34:56;;;;;;;2.70;1.77;;;16.30;99.70;;;;;;5056206;28;20435;-64
2021/08/07 05:37:23;;;;;;;2.90;1.97;;;16.30;99.70;;;;;;5056938;28;20487;-65
2021/08/07 05:39:50;;;;;;;3.10;2.33;;;16.40;99.70;;;;;;5055958;28;20452;-66
2021/08/07 05:42:16;;;;;;;4.27;1.97;;;16.40;99.70;;;;;;5056564;28;20863;-63
2021/08/07 05:44:43;;;;;;;3.97;1.77;;;16.50;99.70;;;;;;5056948;28;20454;-64
2021/08/07 05:47:10;;;;;;;2.97;1.90;;;16.60;99.70;;;;;;5056912;28;20450;-65
2021/08/07 05:49:38;;;;;;;3.27;2.00;;;16.70;99.70;;;;;;5056907;28;20444;-62
2021/08/07 05:52:05;;;;;;;3.53;2.00;;;16.80;99.70;;;;;;5056678;28;20875;-64
2021/08/07 05:54:31;;;;;;;4.53;2.23;;;16.80;99.70;;;;;;5056183;28;20448;-66
2021/08/07 05:56:58;;;;;;;4.90;2.10;;;16.80;99.70;;;;;;5057056;28;20447;-65
2021/08/07 05:59:25;;;;;;;4.33;2.10;;;17.10;99.70;;;;;;5056428;28;20451;-64
2021/08/07 06:01:51;;;;;;;4.23;2.20;;;17.30;99.70;;;;;;5056903;28;20480;-65
2021/08/07 06:04:18;;;;;;;5.43;2.37;;;17.40;99.70;;;;;;5056667;28;20443;-65
2021/08/07 06:06:46;;;;;;;4.00;2.40;;;17.50;99.70;;;;;;5056678;28;20444;-65
2021/08/07 06:09:13;;;;;;;3.00;2.10;;;17.40;99.70;;;;;;5056780;28;20501;-65
2021/08/07 06:11:40;;;;;;;3.10;2.30;;;17.40;99.70;;;;;;5056613;28;20467;-65
2021/08/07 06:14:06;;;;;;;3.17;1.90;;;17.50;99.70;;;;;;5057274;28;20458;-65
2021/08/07 06:16:33;;;;;;;4.43;2.10;;;17.50;99.70;;;;;;5057523;28;20852;-65
2021/08/07 06:19:00;;;;;;;7.33;1.87;;;17.60;99.70;;;;;;5057185;28;20480;-65
2021/08/07 06:21:27;;;;;;;3.27;1.70;;;17.50;99.70;;;;;;5057315;28;20472;-65
2021/08/07 06:23:58;;;;;;;3.23;1.83;;;17.40;99.70;;;;;;5056654;28;20447;-65
2021/08/07 06:26:25;;;;;;;6.30;2.10;;;17.40;99.70;;;;;;5056860;28;20448;-66
2021/08/07 06:28:52;;;;;;;2.50;1.70;;;17.50;99.70;;;;;;5056799;28;20527;-66
2021/08/07 06:31:18;;;;;;;3.27;2.07;;;17.50;99.70;;;;;;5056248;28;20521;-65
2021/08/07 06:33:45;;;;;;;2.60;1.90;;;17.60;99.70;;;;;;5055371;28;21163;-65
2021/08/07 06:36:12;;;;;;;2.87;2.10;;;17.60;99.70;;;;;;5055714;28;20823;-65
2021/08/07 06:38:39;;;;;;;3.70;2.03;;;18.20;99.70;;;;;;5055840;28;20476;-66
2021/08/07 06:41:07;;;;;;;3.67;1.87;;;19.10;99.70;;;;;;5056327;28;20471;-64
2021/08/07 06:43:33;;;;;;;5.57;2.40;;;19.60;99.70;;;;;;5056235;28;20436;-65
2021/08/07 06:46:00;;;;;;;2.40;1.70;;;20.20;99.70;;;;;;5054990;28;20448;-65
2021/08/07 06:48:27;;;;;;;2.50;1.80;;;20.80;99.70;;;;;;5054492;28;20444;-66
2021/08/07 06:50:54;;;;;;;2.67;1.90;;;21.50;99.70;;;;;;5054351;28;20470;-65
2021/08/07 06:53:20;;;;;;;2.60;1.60;;;22.00;99.70;;;;;;5054943;28;20448;-65
2021/08/07 06:55:47;;;;;;;2.83;2.03;;;21.80;99.70;;;;;;5054306;28;20455;-66
2021/08/07 06:58:15;;;;;;;2.90;1.73;;;21.90;99.70;;;;;;5054015;28;20604;-65
2021/08/07 07:00:42;;;;;;;2.90;1.70;;;21.70;99.70;;;;;;5054254;28;20236;-66
2021/08/07 07:03:08;;;;;;;3.27;2.00;;;21.50;99.70;;;;;;5055410;28;20291;-66
2021/08/07 07:05:37;;;;;;;2.20;1.80;;;21.80;99.70;;;;;;5054109;28;20278;-66
2021/08/07 07:08:04;;;;;;;2.63;1.90;;;22.10;99.70;;;;;;5054447;28;20189;-67
2021/08/07 07:10:31;;;;;;;2.87;1.70;;;22.30;99.70;;;;;;5054240;28;20211;-65
2021/08/07 07:12:58;;;;;;;2.63;1.55;;;22.70;99.70;;;;;;5052285;23;20225;-65
2021/08/07 07:15:26;;;;;;;1.90;1.50;;;22.90;99.70;;;;;;5026670;28;20697;-64
2021/08/07 07:17:53;;;;;;;3.33;1.60;;;22.60;99.70;;;;;;5027031;28;20229;-65
2021/08/07 07:20:21;;;;;;;2.35;1.60;;;22.80;99.70;;;;;;5028171;28;20220;-64
2021/08/07 07:22:47;;;;;;;2.55;1.70;;;22.90;99.70;;;;;;5027818;28;20348;-65
2021/08/07 07:25:16;;;;;;;2.77;1.70;;;23.40;99.70;;;;;;5029583;28;20274;-64
2021/08/07 07:27:43;;;;;;;1.77;1.60;;;23.50;99.70;;;;;;5029715;28;20610;-64
2021/08/07 07:30:11;;;;;;;2.67;1.60;;;22.90;99.70;;;;;;5029314;28;20201;-66
2021/08/07 07:32:40;;;;;;;1.70;1.50;;;22.40;99.70;;;;;;5028865;28;20221;-67
2021/08/07 07:35:08;;;;;;;3.57;1.70;;;22.00;99.70;;;;;;5029718;28;20201;-67
2021/08/07 07:37:35;;;;;;;3.03;1.90;;;21.50;99.70;;;;;;5029642;28;20436;-67
2021/08/07 07:40:02;;;;;;;3.27;1.73;;;21.00;99.70;;;;;;5029813;28;20444;-67
2021/08/07 07:42:28;;;;;;;3.07;1.60;;;21.00;99.70;;;;;;5029226;28;20463;-66
2021/08/07 07:44:55;;;;;;;2.33;1.90;;;20.80;99.70;;;;;;5030640;28;20440;-65
2021/08/07 07:47:22;;;;;;;2.17;1.60;;;20.80;99.70;;;;;;5033715;28;20451;-65
2021/08/07 07:49:50;;;;;;;2.00;1.50;;;20.90;99.70;;;;;;5033009;28;20447;-66
2021/08/07 07:52:17;;;;;;;3.53;1.80;;;21.00;99.70;;;;;;5033306;28;20841;-65
2021/08/07 07:54:43;;;;;;;3.17;1.50;;;21.10;99.70;;;;;;5032514;28;20444;-65
2021/08/07 07:57:10;;;;;;;5.00;1.70;;;21.20;99.70;;;;;;5033511;28;20444;-65
2021/08/07 07:59:37;;;;;;;4.33;1.80;;;21.10;99.70;;;;;;5033066;28;20484;-66
2021/08/07 08:02:04;;;;;;;2.13;1.60;;;21.20;99.70;;;;;;5032173;28;20974;-65
2021/08/07 08:04:31;;;;;;;6.20;1.80;;;21.10;99.70;;;;;;5031517;28;20940;-66
2021/08/07 08:07:00;;;;;;;2.53;1.33;;;21.30;99.70;;;;;;5032348;28;20437;-66
2021/08/07 08:09:27;;;;;;;2.33;1.40;;;21.40;99.70;;;;;;5032885;28;20480;-66
2021/08/07 08:11:54;;;;;;;2.10;1.50;;;21.50;99.70;;;;;;5032880;28;20817;-66
2021/08/07 08:14:20;;;;;;;2.53;1.87;;;21.60;99.70;;;;;;5032171;28;20456;-66
2021/08/07 08:16:47;;;;;;;2.20;1.40;;;21.50;99.70;;;;;;5032581;28;20440;-66
2021/08/07 08:19:14;;;;;;;2.30;1.53;;;21.40;99.70;;;;;;5033193;28;20476;-66
2021/08/07 08:21:41;;;;;;;2.50;1.57;;;21.50;99.70;;;;;;5052376;28;20505;-66
2021/08/07 08:24:09;;;;;;;3.47;1.60;;;21.50;99.70;;;;;;5052520;28;20738;-65
2021/08/07 08:26:36;;;;;;;2.53;1.50;;;21.50;99.70;;;;;;5052346;28;20923;-66
2021/08/07 08:29:04;;;;;;;2.80;1.70;;;21.50;99.70;;;;;;5035155;28;20447;-66
2021/08/07 08:31:30;;;;;;;1.63;1.30;;;21.50;99.70;;;;;;5028507;28;20440;-65
2021/08/07 08:33:57;;;;;;;2.77;1.70;;;21.50;99.70;;;;;;5030408;28;20455;-66
2021/08/07 08:36:24;;;;;;;2.17;1.50;;;21.50;99.70;;;;;;5030867;28;20449;-66
2021/08/07 08:38:50;;;;;;;3.00;1.60;;;21.50;99.70;;;;;;5031712;28;20480;-65
2021/08/07 08:41:19;;;;;;;2.67;1.67;;;21.40;99.70;;;;;;5032478;28;20440;-68
2021/08/07 08:43:47;;;;;;;1.90;1.57;;;21.50;99.70;;;;;;5032068;28;20469;-67
2021/08/07 08:46:14;;;;;;;2.73;1.70;;;21.30;99.70;;;;;;5032512;28;20451;-66
2021/08/07 08:48:42;;;;;;;2.60;1.70;;;21.20;99.70;;;;;;5032365;28;20553;-65
2021/08/07 08:51:09;;;;;;;2.70;1.70;;;21.20;99.70;;;;;;5031581;28;20437;-64
2021/08/07 08:53:38;;;;;;;2.07;1.60;;;21.20;99.70;;;;;;5032259;28;20504;-66
2021/08/07 08:56:06;;;;;;;2.40;1.73;;;21.20;99.70;;;;;;5030688;28;20487;-65
2021/08/07 08:58:35;;;;;;;3.70;1.80;;;21.20;99.70;;;;;;5032428;28;20979;-65
2021/08/07 09:01:04;;;;;;;2.83;1.70;;;21.10;99.70;;;;;;5031908;28;20539;-65
2021/08/07 09:03:31;;;;;;;2.03;1.50;;;21.10;99.70;;;;;;5032329;28;20496;-65
2021/08/07 09:05:57;;;;;;;2.73;1.47;;;21.10;99.70;;;;;;5030966;28;20448;-65
2021/08/07 09:08:24;;;;;;;2.20;1.80;;;21.00;99.70;;;;;;5026926;28;20439;-65
2021/08/07 09:11:12;;;;;;;3.23;1.90;;;21.00;99.70;;;;;;5051958;28;20448;-64
2021/08/07 09:13:41;;;;;;;1.90;1.30;;;20.90;99.70;;;;;;5051922;28;20476;-65
2021/08/07 09:16:08;;;;;;;3.70;1.60;;;21.00;99.70;;;;;;5051317;28;20447;-64
2021/08/07 09:18:35;;;;;;;2.60;1.50;;;21.00;99.70;;;;;;5037164;28;20483;-64
2021/08/07 09:21:11;;;;;;;2.30;1.60;;;21.00;99.70;;;;;;5031507;28;21010;-64
2021/08/07 09:23:38;;;;;;;3.27;1.60;;;21.00;99.70;;;;;;5031352;28;20474;-65
2021/08/07 09:26:19;;;;;;;3.23;1.70;;;21.00;99.70;;;;;;5031314;28;20447;-65
2021/08/07 09:28:50;;;;;;;3.53;1.60;;;20.90;99.70;;;;;;5031676;28;20931;-64
2021/08/07 09:31:17;;;;;;;2.20;1.50;;;20.90;99.70;;;;;;5031088;28;20825;-65
2021/08/07 09:33:44;;;;;;;4.23;1.90;;;20.80;99.70;;;;;;5031346;28;20999;-64
2021/08/07 09:36:11;;;;;;;2.50;1.67;;;20.80;99.70;;;;;;5031297;28;20525;-66
2021/08/07 09:38:45;;;;;;;2.40;1.60;;;20.70;99.70;;;;;;5031277;28;20850;-65
2021/08/07 09:41:12;;;;;;;2.40;1.53;;;20.70;99.70;;;;;;5031590;28;20511;-65
2021/08/07 09:43:44;;;;;;;2.83;1.50;;;20.60;99.70;;;;;;5031598;28;20469;-65
2021/08/07 09:46:14;;;;;;;3.77;1.63;;;20.50;99.70;;;;;;5030952;28;20550;-65
2021/08/07 09:48:42;;;;;;;1.80;1.33;;;20.50;99.70;;;;;;5031480;28;20444;-65
2021/08/07 09:51:22;;;;;;;2.40;1.40;;;20.60;99.70;;;;;;5031215;28;20452;-66
2021/08/07 09:54:03;;;;;;;3.10;1.70;;;20.60;99.70;;;;;;5031311;28;20452;-65
2021/08/07 09:56:42;;;;;;;2.10;1.40;;;20.50;99.70;;;;;;5031163;28;20445;-65
2021/08/07 09:59:10;;;;;;;2.40;1.50;;;20.50;99.70;;;;;;5031427;28;20962;-66
2021/08/07 10:01:38;;;;;;;3.00;1.60;;;20.40;99.70;;;;;;5031008;28;20449;-65
2021/08/07 10:04:06;;;;;;;1.93;1.40;;;20.30;99.70;;;;;;5030938;28;20464;-65
2021/08/07 10:06:35;;;;;;;2.53;1.57;;;20.20;99.70;;;;;;5029797;28;20475;-66
2021/08/07 10:09:01;;;;;;;3.00;1.70;;;20.10;99.70;;;;;;5050658;28;20450;-65
2021/08/07 10:11:29;;;;;;;3.40;2.00;;;20.00;99.70;;;;;;5043472;28;20440;-65
2021/08/07 10:13:56;;;;;;;2.67;1.60;;;19.90;99.70;;;;;;5030726;28;20476;-65
2021/08/07 10:16:24;;;;;;;3.40;1.60;;;19.70;99.70;;;;;;5030415;28;20453;-65
2021/08/07 10:18:53;;;;;;;3.47;1.73;;;19.50;99.70;;;;;;5030566;28;20534;-65
2021/08/07 10:21:21;;;;;;;2.50;1.50;;;19.30;99.70;;;;;;5030771;28;20884;-65
2021/08/07 10:23:51;;;;;;;3.07;1.80;;;19.30;99.70;;;;;;5038799;28;20876;-65
2021/08/07 10:26:20;;;;;;;2.17;1.60;;;19.30;99.70;;;;;;5045758;28;20467;-66
2021/08/07 10:28:49;;;;;;;2.43;1.60;;;19.20;99.70;;;;;;5030284;28;20448;-66
2021/08/07 10:31:19;;;;;;;2.13;1.40;;;19.00;99.70;;;;;;5030410;28;20498;-65
2021/08/07 10:33:47;;;;;;;2.70;1.70;;;19.00;99.70;;;;;;5030573;28;20548;-65
2021/08/07 10:36:15;;;;;;;3.23;1.93;;;19.00;99.70;;;;;;5030173;28;20522;-65
2021/08/07 10:38:42;;;;;;;2.53;1.60;;;19.00;99.70;;;;;;5030219;28;21176;-65
2021/08/07 10:41:10;;;;;;;3.97;1.57;;;18.90;99.70;;;;;;5030504;28;20444;-65
2021/08/07 10:43:38;;;;;;;3.50;1.60;;;18.80;99.70;;;;;;5030517;28;20465;-65
2021/08/07 10:46:06;;;;;;;3.60;1.60;;;18.80;99.70;;;;;;5029881;28;20441;-66
2021/08/07 10:48:38;;;;;;;2.07;1.40;;;18.80;99.70;;;;;;5030252;28;20440;-65
2021/08/07 10:51:33;;;;;;;4.37;1.90;;;18.70;99.70;;;;;;5030055;28;20627;-65
2021/08/07 10:54:01;;;;;;;2.97;1.73;;;18.50;99.70;;;;;;5030190;28;20851;-65
2021/08/07 10:56:38;;;;;;;2.27;1.60;;;18.50;99.70;;;;;;5029624;28;20457;-65
2021/08/07 10:59:20;;;;;;;3.07;1.60;;;18.60;99.70;;;;;;5030253;28;20472;-66
2021/08/07 11:01:48;;;;;;;2.37;1.60;;;18.60;99.70;;;;;;5010230;28;20983;-66
2021/08/07 11:04:19;;;;;;;2.73;1.70;;;18.60;99.70;;;;;;5024655;28;20445;-65
2021/08/07 11:06:49;;;;;;;3.60;1.80;;;18.70;99.70;;;;;;5029430;28;20440;-66
2021/08/07 11:09:18;;;;;;;3.07;1.60;;;18.70;99.70;;;;;;5029854;28;20528;-66
2021/08/07 11:11:45;;;;;;;3.60;1.70;;;18.70;99.70;;;;;;5029682;28;20927;-67
2021/08/07 11:14:47;;;;;;;3.20;2.00;;;18.60;99.70;;;;;;5029346;28;20476;-66
2021/08/07 11:17:39;;;;;;;5.73;1.77;;;18.70;99.70;;;;;;4930233;29;21040;-66
2021/08/07 11:20:12;;;;;;;3.13;1.93;;;18.60;99.70;;;;;;4929697;29;20574;-66
2021/08/07 11:23:11;;;;;;;2.40;1.60;;;18.70;99.70;;;;;;4983123;28;20493;-66
2021/08/07 11:25:50;;;;;;;2.93;1.77;;;18.80;99.70;;;;;;5021569;28;20445;-66
2021/08/07 11:28:19;;;;;;;2.83;1.83;;;18.80;99.70;;;;;;5029931;28;20448;-66
2021/08/07 11:30:46;;;;;;;3.37;2.13;;;18.90;99.70;;;;;;5029600;28;20455;-66
2021/08/07 11:33:21;;;;;;;4.00;1.90;;;18.70;99.70;;;;;;5029367;28;20491;-66
2021/08/07 11:36:09;;;;;;;3.07;1.90;;;18.70;99.70;;;;;;5029313;28;20448;-66
2021/08/07 11:39:01;;;;;;;2.60;1.70;;;18.60;99.70;;;;;;5029787;28;20443;-67
2021/08/07 11:41:39;;;;;;;3.93;1.90;;;18.60;99.70;;;;;;5029664;28;20849;-66
2021/08/07 11:44:07;;;;;;;4.00;2.07;;;18.50;99.70;;;;;;5029147;28;20776;-65
2021/08/07 11:46:43;;;;;;;3.80;2.10;;;18.50;99.70;;;;;;5029750;28;20448;-66
2021/08/07 11:49:10;;;;;;;3.50;1.80;;;18.50;99.70;;;;;;5029007;28;20463;-66
2021/08/07 11:51:38;;;;;;;4.53;1.90;;;18.50;99.70;;;;;;5029518;28;20444;-66
2021/08/07 11:54:14;;;;;;;2.90;1.70;;;18.50;99.70;;;;;;5029118;28;20899;-65
2021/08/07 11:56:41;;;;;;;3.30;1.90;;;18.40;99.70;;;;;;5029832;28;20878;-67
2021/08/07 11:59:08;;;;;;;2.80;1.77;;;18.50;99.70;;;;;;5029398;28;20488;-67
2021/08/07 12:01:38;;;;;;;3.87;2.50;;;18.40;99.70;;;;;;5047979;28;20447;-67
2021/08/07 12:04:06;;;;;;;3.10;1.80;;;18.40;99.70;;;;;;5049344;28;20460;-66
2021/08/07 12:06:35;;;;;;;4.10;1.80;;;18.40;99.70;;;;;;5048775;28;20470;-66
2021/08/07 12:09:08;;;;;;;2.50;1.70;;;18.40;99.70;;;;;;5047846;28;20541;-66
2021/08/07 12:11:37;;;;;;;2.90;1.73;;;18.50;99.70;;;;;;5029245;28;20967;-67
2021/08/07 12:14:04;;;;;;;3.70;1.70;;;18.50;99.70;;;;;;5029091;28;20483;-66
2021/08/07 12:16:33;;;;;;;3.37;2.00;;;18.50;99.70;;;;;;5028990;28;20455;-67
2021/08/07 12:19:00;;;;;;;2.77;1.63;;;18.50;99.70;;;;;;5029266;28;20440;-66
2021/08/07 12:21:33;;;;;;;4.37;1.80;;;18.60;99.70;;;;;;5028945;28;20440;-67
2021/08/07 12:24:02;;;;;;;2.20;1.50;;;18.50;99.70;;;;;;5029582;28;20460;-67
2021/08/07 12:26:31;;;;;;;3.93;1.93;;;18.60;99.70;;;;;;5028895;28;20456;-66
2021/08/07 12:29:03;;;;;;;3.07;1.80;;;18.60;99.70;;;;;;5029365;28;20445;-65
2021/08/07 12:31:41;;;;;;;3.13;1.83;;;18.60;99.70;;;;;;5011365;28;20815;-67
2021/08/07 12:34:12;;;;;;;3.07;1.53;;;18.50;99.70;;;;;;5023119;28;20560;-64
2021/08/07 12:36:39;;;;;;;2.20;1.50;;;18.40;99.70;;;;;;5032663;28;20449;-66
2021/08/07 12:39:06;;;;;;;2.07;1.60;;;18.40;99.70;;;;;;5031875;28;20441;-66
2021/08/07 12:41:33;;;;;;;3.93;2.10;;;18.50;99.70;;;;;;5032477;28;20967;-66
2021/08/07 12:44:01;;;;;;;4.53;2.13;;;18.60;99.70;;;;;;5032270;28;20871;-66
2021/08/07 12:46:28;;;;;;;2.97;1.43;;;18.60;99.70;;;;;;5032572;28;20451;-66
2021/08/07 12:48:56;;;;;;;2.83;1.83;;;18.60;99.70;;;;;;5031304;28;20449;-66
2021/08/07 12:51:28;;;;;;;3.50;1.70;;;18.60;99.70;;;;;;5050411;28;20446;-67
2021/08/07 12:53:57;;;;;;;4.17;1.80;;;18.40;99.70;;;;;;5045964;28;20464;-65
2021/08/07 12:56:24;;;;;;;2.93;2.07;;;18.40;99.70;;;;;;5032200;28;20538;-66
2021/08/07 12:58:59;;;;;;;3.27;1.90;;;18.50;99.70;;;;;;5019231;28;20979;-66
2021/08/07 13:01:28;;;;;;;3.10;1.87;;;18.40;99.70;;;;;;5032184;28;21013;-66
2021/08/07 13:03:57;;;;;;;2.47;1.73;;;18.30;99.70;;;;;;5043772;28;20671;-66
2021/08/07 13:06:24;;;;;;;2.40;1.60;;;18.30;99.70;;;;;;5051748;28;20451;-66
2021/08/07 13:08:52;;;;;;;4.57;1.93;;;18.30;99.70;;;;;;5048533;28;20447;-66
2021/08/07 13:11:21;;;;;;;2.53;1.60;;;18.30;99.70;;;;;;5031940;28;20444;-66
2021/08/07 13:13:51;;;;;;;3.20;1.80;;;18.30;99.70;;;;;;5059019;22;20505;-67
2021/08/07 13:16:43;;;;;;;2.80;1.70;;;18.30;99.70;;;;;;5043862;28;20938;-67
2021/08/07 13:19:14;;;;;;;3.40;2.30;;;18.30;99.70;;;;;;5050665;28;20444;-67
2021/08/07 13:21:41;;;;;;;4.67;1.90;;;18.30;99.70;;;;;;5051601;28;20471;-68
2021/08/07 13:24:26;;;;;;;3.33;1.70;;;18.30;99.70;;;;;;5051871;28;20463;-67
2021/08/07 13:26:53;;;;;;;2.43;1.70;;;18.10;99.70;;;;;;5051756;28;20505;-67
2021/08/07 13:29:21;;;;;;;3.50;1.70;;;18.10;99.70;;;;;;5045486;28;20494;-67
2021/08/07 13:31:49;;;;;;;3.33;1.83;;;18.10;99.70;;;;;;5031498;28;20448;-67
2021/08/07 13:34:16;;;;;;;3.50;1.87;;;18.10;99.70;;;;;;5031579;28;20462;-67
2021/08/07 13:36:42;;;;;;;2.83;1.77;;;17.90;99.70;;;;;;5031791;28;20814;-67
2021/08/07 13:39:09;;;;;;;3.40;1.70;;;17.90;99.70;;;;;;5036452;28;20439;-67
2021/08/07 13:41:40;;;;;;;2.77;2.03;;;17.70;99.70;;;;;;5050721;28;20479;-68
2021/08/07 13:44:07;;;;;;;3.10;2.13;;;17.70;99.70;;;;;;5050918;28;20475;-67
2021/08/07 13:46:33;;;;;;;3.37;1.70;;;17.50;99.70;;;;;;5051489;28;20479;-68
2021/08/07 13:49:03;;;;;;;2.50;1.70;;;17.60;99.70;;;;;;5047799;28;20444;-68
2021/08/07 13:51:30;;;;;;;4.00;1.70;;;17.60;99.70;;;;;;5033850;28;20440;-68
2021/08/07 13:53:56;;;;;;;2.10;1.50;;;17.50;99.70;;;;;;5051145;28;20532;-67
2021/08/07 13:56:26;;;;;;;2.10;1.40;;;17.30;99.70;;;;;;5051177;28;20443;-68
2021/08/07 13:58:53;;;;;;;2.67;1.73;;;17.40;99.70;;;;;;5040276;28;20452;-68
2021/08/07 14:01:20;;;;;;;2.10;1.27;;;17.20;99.70;;;;;;5020126;28;20476;-68
2021/08/07 14:03:49;;;;;;;2.00;1.37;;;17.10;99.70;;;;;;5030812;28;20468;-67
2021/08/07 14:06:18;;;;;;;1.83;1.17;;;16.90;99.70;;;;;;5029754;28;20956;-67
2021/08/07 14:08:45;;;;;;;2.13;1.40;;;16.80;99.70;;;;;;5031322;28;20483;-67
2021/08/07 14:11:11;;;;;;;1.77;1.20;;;16.80;99.70;;;;;;5025002;28;20448;-68
2021/08/07 14:13:38;;;;;;;1.80;1.30;;;16.80;99.70;;;;;;5023771;28;20639;-68
2021/08/07 14:16:05;;;;;;;2.83;1.40;;;16.80;99.70;;;;;;5049824;28;20459;-67
2021/08/07 14:18:32;;;;;;;3.83;1.60;;;16.90;99.70;;;;;;5050765;28;20451;-67
2021/08/07 14:20:59;;;;;;;2.43;1.40;;;16.90;99.70;;;;;;5031415;28;20480;-68
2021/08/07 14:23:27;;;;;;;1.90;1.30;;;16.90;99.70;;;;;;5031432;28;20931;-68
2021/08/07 14:25:54;;;;;;;2.13;1.33;;;16.90;99.70;;;;;;5011239;28;20445;-68
2021/08/07 14:28:21;;;;;;;2.57;1.40;;;16.90;99.70;;;;;;5010947;28;20453;-68
2021/08/07 14:30:48;;;;;;;2.13;1.70;;;16.90;99.70;;;;;;5014684;28;20504;-68
2021/08/07 14:33:15;;;;;;;1.97;1.30;;;16.90;99.70;;;;;;5029505;28;20796;-68
2021/08/07 14:35:42;;;;;;;4.20;1.70;;;16.90;99.70;;;;;;5035630;28;20456;-68
2021/08/07 14:38:08;;;;;;;4.20;1.67;;;16.90;99.70;;;;;;5050609;28;20931;-68
2021/08/07 14:40:37;;;;;;;4.30;1.90;;;16.90;99.70;;;;;;5050484;28;20479;-68
2021/08/07 14:43:03;;;;;;;3.10;1.93;;;17.00;99.70;;;;;;5050456;28;20817;-68
2021/08/07 14:45:30;;;;;;;2.90;1.70;;;17.00;99.70;;;;;;5049380;28;20986;-68
2021/08/07 14:47:57;;;;;;;2.20;1.60;;;17.00;99.70;;;;;;5050610;28;20834;-68
2021/08/07 14:50:24;;;;;;;7.93;1.90;;;17.00;99.70;;;;;;5050263;28;20436;-68
2021/08/07 14:52:50;;;;;;;2.60;1.50;;;16.80;99.70;;;;;;5050581;28;20945;-68
2021/08/07 14:55:17;;;;;;;2.93;1.60;;;16.80;99.70;;;;;;5048267;28;20494;-68
2021/08/07 14:57:45;;;;;;;2.50;1.50;;;16.80;99.70;;;;;;5050489;28;20443;-68
2021/08/07 15:00:12;;;;;;;2.37;1.70;;;16.80;99.70;;;;;;5049939;28;20479;-68
2021/08/07 15:02:39;;;;;;;2.73;1.63;;;16.70;99.70;;;;;;5050006;28;20844;-68
2021/08/07 15:05:06;;;;;;;2.57;1.50;;;16.80;99.70;;;;;;5037150;28;20472;-67
2021/08/07 15:07:33;;;;;;;2.73;1.60;;;16.80;99.70;;;;;;5029992;28;20480;-67
2021/08/07 15:10:00;;;;;;;3.07;1.50;;;16.80;99.70;;;;;;5030694;28;20494;-68
2021/08/07 15:12:26;;;;;;;3.07;1.80;;;16.70;99.70;;;;;;5029954;28;20452;-67
2021/08/07 15:14:55;;;;;;;1.93;1.40;;;16.70;99.70;;;;;;5040243;28;20475;-68
2021/08/07 15:17:21;;;;;;;3.90;1.57;;;16.70;99.70;;;;;;5049870;28;20757;-67
2021/08/07 15:19:48;;;;;;;3.80;1.70;;;16.80;99.70;;;;;;5050082;28;20965;-68
2021/08/07 15:22:15;;;;;;;3.20;1.50;;;16.70;99.70;;;;;;5038067;28;20484;-67
2021/08/07 15:24:47;;;;;;;2.20;1.40;;;16.70;99.70;;;;;;5049319;28;20842;-67
2021/08/07 15:27:14;;;;;;;2.47;1.30;;;16.70;99.70;;;;;;5048961;28;20551;-67
2021/08/07 15:29:40;;;;;;;2.57;1.47;;;16.70;99.70;;;;;;5029854;28;20440;-68
2021/08/07 15:32:08;;;;;;;2.97;1.60;;;16.70;99.70;;;;;;5029757;28;20514;-68
2021/08/07 15:34:35;;;;;;;2.40;1.70;;;16.80;99.70;;;;;;5025433;28;20472;-68
2021/08/07 15:37:02;;;;;;;2.37;1.50;;;16.80;99.70;;;;;;5020648;28;20483;-67
2021/08/07 15:39:29;;;;;;;2.47;1.70;;;16.80;99.70;;;;;;5029433;28;20459;-68
2021/08/07 15:41:55;;;;;;;2.57;1.73;;;16.80;99.70;;;;;;5029821;28;20905;-68
2021/08/07 15:44:22;;;;;;;3.50;1.90;;;16.70;99.70;;;;;;5048792;28;20746;-68
2021/08/07 15:46:49;;;;;;;1.90;1.30;;;16.70;99.70;;;;;;5049555;28;20858;-68
2021/08/07 15:49:17;;;;;;;2.77;1.73;;;16.80;99.70;;;;;;5037654;28;20516;-68
2021/08/07 15:51:43;;;;;;;2.90;1.30;;;16.80;99.70;;;;;;5028076;28;20964;-68
2021/08/07 15:54:10;;;;;;;3.27;1.60;;;16.80;99.70;;;;;;5040219;28;20460;-68
2021/08/07 15:56:37;;;;;;;2.53;1.50;;;16.70;99.70;;;;;;5029005;28;20449;-68
2021/08/07 15:59:04;;;;;;;3.13;1.90;;;16.70;99.70;;;;;;5029769;28;20540;-67
2021/08/07 16:01:31;;;;;;;3.20;1.40;;;16.70;99.70;;;;;;5028907;28;20994;-68
2021/08/07 16:03:57;;;;;;;2.30;1.50;;;16.70;99.70;;;;;;5031047;28;20999;-68
2021/08/07 16:06:26;;;;;;;2.57;1.70;;;16.80;99.70;;;;;;5031592;28;20449;-68
2021/08/07 16:08:52;;;;;;;2.90;1.57;;;16.80;99.70;;;;;;5032731;28;20451;-67
2021/08/07 16:11:19;;;;;;;2.10;1.20;;;16.80;99.70;;;;;;5032358;28;20499;-69
2021/08/07 16:13:46;;;;;;;2.87;1.70;;;16.80;99.70;;;;;;5031885;28;20468;-68
2021/08/07 16:16:13;;;;;;;3.30;1.77;;;16.80;99.70;;;;;;5024990;28;20441;-68
2021/08/07 16:18:40;;;;;;;3.17;1.60;;;16.80;99.70;;;;;;5032312;28;20445;-67
2021/08/07 16:21:08;;;;;;;2.23;1.50;;;16.80;99.70;;;;;;5032997;28;21644;-68
2021/08/07 16:23:36;;;;;;;2.70;1.40;;;16.90;99.70;;;;;;5031828;28;20460;-67
2021/08/07 16:26:03;;;;;;;2.93;1.50;;;16.90;99.70;;;;;;5031300;28;20451;-68